sensor_id;sensor_type;location;lat;lon;timestamp;temperature;humidity
76293;DHT22;67256;51.154;4.164;2023-02-15T00:02:15;7.90;65.80
76293;DHT22;67256;51.154;4.164;2023-02-15T00:04:41;7.80;66.00
76293;DHT22;67256;51.154;4.164;2023-02-15T00:07:18;7.80;66.30
76293;DHT22;67256;51.154;4.164;2023-02-15T00:09:47;7.80;66.30
76293;DHT22;67256;51.154;4.164;2023-02-15T00:12:14;7.80;66.10
76293;DHT22;67256;51.154;4.164;2023-02-15T00:14:41;7.80;66.10
76293;DHT22;67256;51.154;4.164;2023-02-15T00:17:07;7.70;66.30
76293;DHT22;67256;51.154;4.164;2023-02-15T00:19:33;7.70;66.50
76293;DHT22;67256;51.154;4.164;2023-02-15T00:21:59;7.70;66.10
76293;DHT22;67256;51.154;4.164;2023-02-15T00:24:25;7.70;66.60
76293;DHT22;67256;51.154;4.164;2023-02-15T00:26:51;7.60;66.80
76293;DHT22;67256;51.154;4.164;2023-02-15T00:29:18;7.60;67.20
76293;DHT22;67256;51.154;4.164;2023-02-15T00:31:45;7.60;67.00
76293;DHT22;67256;51.154;4.164;2023-02-15T00:34:22;7.60;66.70
76293;DHT22;67256;51.154;4.164;2023-02-15T00:36:48;7.60;66.70
76293;DHT22;67256;51.154;4.164;2023-02-15T00:39:15;7.60;66.60
76293;DHT22;67256;51.154;4.164;2023-02-15T00:41:41;7.60;66.10
76293;DHT22;67256;51.154;4.164;2023-02-15T00:44:08;7.60;66.60
76293;DHT22;67256;51.154;4.164;2023-02-15T00:46:34;7.50;66.00
76293;DHT22;67256;51.154;4.164;2023-02-15T00:49:01;7.50;65.80
76293;DHT22;67256;51.154;4.164;2023-02-15T00:51:27;7.50;66.70
76293;DHT22;67256;51.154;4.164;2023-02-15T00:53:53;7.50;66.80
76293;DHT22;67256;51.154;4.164;2023-02-15T00:56:19;7.50;66.90
76293;DHT22;67256;51.154;4.164;2023-02-15T00:58:46;7.40;67.00
76293;DHT22;67256;51.154;4.164;2023-02-15T01:01:18;7.40;66.80
76293;DHT22;67256;51.154;4.164;2023-02-15T01:03:44;7.40;66.60
76293;DHT22;67256;51.154;4.164;2023-02-15T01:06:13;7.40;66.70
76293;DHT22;67256;51.154;4.164;2023-02-15T01:08:39;7.40;66.40
76293;DHT22;67256;51.154;4.164;2023-02-15T01:11:08;7.30;66.40
76293;DHT22;67256;51.154;4.164;2023-02-15T01:13:35;7.30;66.50
76293;DHT22;67256;51.154;4.164;2023-02-15T01:16:02;7.30;67.00
76293;DHT22;67256;51.154;4.164;2023-02-15T01:18:29;7.30;66.40
76293;DHT22;67256;51.154;4.164;2023-02-15T01:20:56;7.30;67.20
76293;DHT22;67256;51.154;4.164;2023-02-15T01:23:23;7.30;67.70
76293;DHT22;67256;51.154;4.164;2023-02-15T01:25:49;7.30;66.00
76293;DHT22;67256;51.154;4.164;2023-02-15T01:28:15;7.30;66.30
76293;DHT22;67256;51.154;4.164;2023-02-15T01:30:41;7.20;65.70
76293;DHT22;67256;51.154;4.164;2023-02-15T01:33:08;7.30;67.20
76293;DHT22;67256;51.154;4.164;2023-02-15T01:35:43;7.20;67.20
76293;DHT22;67256;51.154;4.164;2023-02-15T01:38:09;7.20;66.10
76293;DHT22;67256;51.154;4.164;2023-02-15T01:40:35;7.20;65.70
76293;DHT22;67256;51.154;4.164;2023-02-15T01:43:01;7.20;66.50
76293;DHT22;67256;51.154;4.164;2023-02-15T01:45:31;7.20;66.40
76293;DHT22;67256;51.154;4.164;2023-02-15T01:48:06;7.10;65.10
76293;DHT22;67256;51.154;4.164;2023-02-15T01:50:39;7.10;65.50
76293;DHT22;67256;51.154;4.164;2023-02-15T01:53:28;7.10;65.70
76293;DHT22;67256;51.154;4.164;2023-02-15T01:58:26;7.00;65.80
76293;DHT22;67256;51.154;4.164;2023-02-15T02:00:54;7.00;66.20
76293;DHT22;67256;51.154;4.164;2023-02-15T02:06:10;7.00;66.20
76293;DHT22;67256;51.154;4.164;2023-02-15T02:08:36;6.90;65.90
76293;DHT22;67256;51.154;4.164;2023-02-15T02:11:02;6.90;66.30
76293;DHT22;67256;51.154;4.164;2023-02-15T02:13:29;6.90;67.00
76293;DHT22;67256;51.154;4.164;2023-02-15T02:16:03;6.90;67.00
76293;DHT22;67256;51.154;4.164;2023-02-15T02:18:35;6.90;66.80
76293;DHT22;67256;51.154;4.164;2023-02-15T02:24:12;6.90;65.80
76293;DHT22;67256;51.154;4.164;2023-02-15T02:26:54;6.90;65.30
76293;DHT22;67256;51.154;4.164;2023-02-15T02:38:11;6.70;65.40
76293;DHT22;67256;51.154;4.164;2023-02-15T02:49:16;6.70;65.90
76293;DHT22;67256;51.154;4.164;2023-02-15T02:51:42;6.60;66.60
76293;DHT22;67256;51.154;4.164;2023-02-15T02:54:08;6.70;67.20
76293;DHT22;67256;51.154;4.164;2023-02-15T02:56:43;6.70;66.00
76293;DHT22;67256;51.154;4.164;2023-02-15T02:59:15;6.70;65.90
76293;DHT22;67256;51.154;4.164;2023-02-15T03:01:57;6.60;65.30
76293;DHT22;67256;51.154;4.164;2023-02-15T03:04:28;6.60;64.80
76293;DHT22;67256;51.154;4.164;2023-02-15T03:06:59;6.50;65.70
76293;DHT22;67256;51.154;4.164;2023-02-15T03:09:34;6.50;65.40
76293;DHT22;67256;51.154;4.164;2023-02-15T03:12:19;6.50;65.60
76293;DHT22;67256;51.154;4.164;2023-02-15T03:14:48;6.50;65.50
76293;DHT22;67256;51.154;4.164;2023-02-15T03:17:17;6.50;66.30
76293;DHT22;67256;51.154;4.164;2023-02-15T03:19:45;6.50;65.30
76293;DHT22;67256;51.154;4.164;2023-02-15T03:22:29;6.40;65.60
76293;DHT22;67256;51.154;4.164;2023-02-15T03:25:02;6.50;66.80
76293;DHT22;67256;51.154;4.164;2023-02-15T03:27:37;6.50;66.20
76293;DHT22;67256;51.154;4.164;2023-02-15T03:30:05;6.40;65.90
76293;DHT22;67256;51.154;4.164;2023-02-15T03:32:33;6.40;66.20
76293;DHT22;67256;51.154;4.164;2023-02-15T03:35:00;6.40;65.90
76293;DHT22;67256;51.154;4.164;2023-02-15T03:37:33;6.40;66.10
76293;DHT22;67256;51.154;4.164;2023-02-15T03:43:24;6.40;65.40
76293;DHT22;67256;51.154;4.164;2023-02-15T03:45:56;6.40;66.50
76293;DHT22;67256;51.154;4.164;2023-02-15T03:48:35;6.30;65.90
76293;DHT22;67256;51.154;4.164;2023-02-15T03:51:05;6.30;66.90
76293;DHT22;67256;51.154;4.164;2023-02-15T03:53:52;6.30;66.10
76293;DHT22;67256;51.154;4.164;2023-02-15T03:56:19;6.30;65.90
76293;DHT22;67256;51.154;4.164;2023-02-15T03:58:45;6.20;66.20
76293;DHT22;67256;51.154;4.164;2023-02-15T04:01:37;6.20;67.40
76293;DHT22;67256;51.154;4.164;2023-02-15T04:04:28;6.20;66.20
76293;DHT22;67256;51.154;4.164;2023-02-15T04:06:55;6.20;65.60
76293;DHT22;67256;51.154;4.164;2023-02-15T04:09:21;6.20;65.50
76293;DHT22;67256;51.154;4.164;2023-02-15T04:12:05;6.20;65.70
76293;DHT22;67256;51.154;4.164;2023-02-15T04:14:32;6.20;65.80
76293;DHT22;67256;51.154;4.164;2023-02-15T04:17:16;6.10;65.60
76293;DHT22;67256;51.154;4.164;2023-02-15T04:19:42;6.10;65.70
76293;DHT22;67256;51.154;4.164;2023-02-15T04:22:26;6.10;65.70
76293;DHT22;67256;51.154;4.164;2023-02-15T04:25:11;6.00;65.90
76293;DHT22;67256;51.154;4.164;2023-02-15T04:27:38;6.00;66.10
76293;DHT22;67256;51.154;4.164;2023-02-15T04:30:05;6.00;66.00
76293;DHT22;67256;51.154;4.164;2023-02-15T04:32:32;6.00;66.40
76293;DHT22;67256;51.154;4.164;2023-02-15T04:34:58;6.00;66.90
76293;DHT22;67256;51.154;4.164;2023-02-15T04:37:23;6.00;67.90
76293;DHT22;67256;51.154;4.164;2023-02-15T04:39:49;6.00;67.70
76293;DHT22;67256;51.154;4.164;2023-02-15T04:42:15;6.10;67.40
76293;DHT22;67256;51.154;4.164;2023-02-15T04:44:41;6.10;68.10
76293;DHT22;67256;51.154;4.164;2023-02-15T04:47:07;6.10;67.90
76293;DHT22;67256;51.154;4.164;2023-02-15T04:49:33;6.10;67.20
76293;DHT22;67256;51.154;4.164;2023-02-15T04:51:58;6.10;66.80
76293;DHT22;67256;51.154;4.164;2023-02-15T04:54:25;6.00;66.60
76293;DHT22;67256;51.154;4.164;2023-02-15T04:56:51;6.00;67.20
76293;DHT22;67256;51.154;4.164;2023-02-15T04:59:16;6.00;67.00
76293;DHT22;67256;51.154;4.164;2023-02-15T05:01:42;6.00;67.00
76293;DHT22;67256;51.154;4.164;2023-02-15T05:04:08;6.00;66.50
76293;DHT22;67256;51.154;4.164;2023-02-15T05:06:34;6.00;66.50
76293;DHT22;67256;51.154;4.164;2023-02-15T05:09:00;5.90;67.10
76293;DHT22;67256;51.154;4.164;2023-02-15T05:11:27;5.90;66.20
76293;DHT22;67256;51.154;4.164;2023-02-15T05:13:52;5.90;66.50
76293;DHT22;67256;51.154;4.164;2023-02-15T05:16:18;5.90;66.90
76293;DHT22;67256;51.154;4.164;2023-02-15T05:18:44;5.90;67.30
76293;DHT22;67256;51.154;4.164;2023-02-15T05:21:10;5.90;67.20
76293;DHT22;67256;51.154;4.164;2023-02-15T05:23:36;5.90;67.20
76293;DHT22;67256;51.154;4.164;2023-02-15T05:26:02;5.90;67.00
76293;DHT22;67256;51.154;4.164;2023-02-15T05:28:46;5.90;67.10
76293;DHT22;67256;51.154;4.164;2023-02-15T05:31:17;5.80;67.00
76293;DHT22;67256;51.154;4.164;2023-02-15T05:33:44;5.80;66.80
76293;DHT22;67256;51.154;4.164;2023-02-15T05:36:11;5.80;66.80
76293;DHT22;67256;51.154;4.164;2023-02-15T05:38:37;5.80;66.70
76293;DHT22;67256;51.154;4.164;2023-02-15T05:41:04;5.80;67.10
76293;DHT22;67256;51.154;4.164;2023-02-15T05:43:31;5.80;67.80
76293;DHT22;67256;51.154;4.164;2023-02-15T05:45:56;5.80;68.10
76293;DHT22;67256;51.154;4.164;2023-02-15T05:48:24;5.80;67.30
76293;DHT22;67256;51.154;4.164;2023-02-15T05:51:04;5.80;67.20
76293;DHT22;67256;51.154;4.164;2023-02-15T05:53:32;5.80;67.80
76293;DHT22;67256;51.154;4.164;2023-02-15T05:55:58;5.80;68.10
76293;DHT22;67256;51.154;4.164;2023-02-15T05:58:26;5.80;67.50
76293;DHT22;67256;51.154;4.164;2023-02-15T06:00:52;5.80;66.70
76293;DHT22;67256;51.154;4.164;2023-02-15T06:03:19;5.70;67.90
76293;DHT22;67256;51.154;4.164;2023-02-15T06:05:44;5.80;68.60
76293;DHT22;67256;51.154;4.164;2023-02-15T06:08:10;5.80;68.20
76293;DHT22;67256;51.154;4.164;2023-02-15T06:10:36;5.70;67.70
76293;DHT22;67256;51.154;4.164;2023-02-15T06:13:03;5.70;67.50
76293;DHT22;67256;51.154;4.164;2023-02-15T06:15:28;5.70;66.70
76293;DHT22;67256;51.154;4.164;2023-02-15T06:17:54;5.70;67.50
76293;DHT22;67256;51.154;4.164;2023-02-15T06:20:20;5.70;67.60
76293;DHT22;67256;51.154;4.164;2023-02-15T06:22:46;5.60;66.90
76293;DHT22;67256;51.154;4.164;2023-02-15T06:25:13;5.70;66.70
76293;DHT22;67256;51.154;4.164;2023-02-15T06:27:41;5.60;66.20
76293;DHT22;67256;51.154;4.164;2023-02-15T06:30:08;5.60;67.10
76293;DHT22;67256;51.154;4.164;2023-02-15T06:32:35;5.60;67.20
76293;DHT22;67256;51.154;4.164;2023-02-15T06:35:00;5.60;67.50
76293;DHT22;67256;51.154;4.164;2023-02-15T06:37:26;5.60;67.50
76293;DHT22;67256;51.154;4.164;2023-02-15T06:39:52;5.60;67.20
76293;DHT22;67256;51.154;4.164;2023-02-15T06:42:18;5.60;67.10
76293;DHT22;67256;51.154;4.164;2023-02-15T06:44:44;5.60;67.00
76293;DHT22;67256;51.154;4.164;2023-02-15T06:47:10;5.60;66.90
76293;DHT22;67256;51.154;4.164;2023-02-15T06:49:37;5.60;66.90
76293;DHT22;67256;51.154;4.164;2023-02-15T06:52:03;5.60;67.70
76293;DHT22;67256;51.154;4.164;2023-02-15T06:54:30;5.60;67.10
76293;DHT22;67256;51.154;4.164;2023-02-15T06:56:55;5.60;67.10
76293;DHT22;67256;51.154;4.164;2023-02-15T06:59:21;5.60;66.90
76293;DHT22;67256;51.154;4.164;2023-02-15T07:01:47;5.60;66.90
76293;DHT22;67256;51.154;4.164;2023-02-15T07:04:14;5.60;66.90
76293;DHT22;67256;51.154;4.164;2023-02-15T07:06:40;5.60;67.40
76293;DHT22;67256;51.154;4.164;2023-02-15T07:09:06;5.60;67.00
76293;DHT22;67256;51.154;4.164;2023-02-15T07:11:32;5.60;66.70
76293;DHT22;67256;51.154;4.164;2023-02-15T07:14:17;5.60;66.90
76293;DHT22;67256;51.154;4.164;2023-02-15T07:16:43;5.60;67.30
76293;DHT22;67256;51.154;4.164;2023-02-15T07:19:08;5.60;67.70
76293;DHT22;67256;51.154;4.164;2023-02-15T07:21:35;5.60;67.50
76293;DHT22;67256;51.154;4.164;2023-02-15T07:24:01;5.70;67.70
76293;DHT22;67256;51.154;4.164;2023-02-15T07:26:27;5.70;67.80
76293;DHT22;67256;51.154;4.164;2023-02-15T07:28:53;5.70;67.60
76293;DHT22;67256;51.154;4.164;2023-02-15T07:31:18;5.70;68.60
76293;DHT22;67256;51.154;4.164;2023-02-15T07:33:45;5.70;68.90
76293;DHT22;67256;51.154;4.164;2023-02-15T07:36:12;5.70;69.40
76293;DHT22;67256;51.154;4.164;2023-02-15T07:38:40;5.70;69.30
76293;DHT22;67256;51.154;4.164;2023-02-15T07:41:08;5.80;69.10
76293;DHT22;67256;51.154;4.164;2023-02-15T07:43:36;5.80;69.00
76293;DHT22;67256;51.154;4.164;2023-02-15T07:46:04;5.80;69.60
76293;DHT22;67256;51.154;4.164;2023-02-15T07:48:31;5.80;69.80
76293;DHT22;67256;51.154;4.164;2023-02-15T07:51:04;5.90;69.40
76293;DHT22;67256;51.154;4.164;2023-02-15T07:53:31;5.90;69.30
76293;DHT22;67256;51.154;4.164;2023-02-15T07:56:05;5.90;69.20
76293;DHT22;67256;51.154;4.164;2023-02-15T07:58:32;6.00;70.10
76293;DHT22;67256;51.154;4.164;2023-02-15T08:01:25;6.00;69.60
76293;DHT22;67256;51.154;4.164;2023-02-15T08:03:52;6.10;70.00
76293;DHT22;67256;51.154;4.164;2023-02-15T08:06:18;6.10;69.90
76293;DHT22;67256;51.154;4.164;2023-02-15T08:08:44;6.10;69.90
76293;DHT22;67256;51.154;4.164;2023-02-15T08:13:58;6.20;70.10
76293;DHT22;67256;51.154;4.164;2023-02-15T08:16:42;6.20;69.80
76293;DHT22;67256;51.154;4.164;2023-02-15T08:19:15;6.30;70.30
76293;DHT22;67256;51.154;4.164;2023-02-15T08:21:44;6.30;70.40
76293;DHT22;67256;51.154;4.164;2023-02-15T08:24:11;6.40;70.10
76293;DHT22;67256;51.154;4.164;2023-02-15T08:26:37;6.40;70.00
76293;DHT22;67256;51.154;4.164;2023-02-15T08:29:04;6.50;70.20
76293;DHT22;67256;51.154;4.164;2023-02-15T08:31:32;6.50;70.30
76293;DHT22;67256;51.154;4.164;2023-02-15T08:33:58;6.50;70.30
76293;DHT22;67256;51.154;4.164;2023-02-15T08:36:27;6.60;70.20
76293;DHT22;67256;51.154;4.164;2023-02-15T08:38:54;6.60;70.40
76293;DHT22;67256;51.154;4.164;2023-02-15T08:41:27;6.70;70.40
76293;DHT22;67256;51.154;4.164;2023-02-15T08:43:56;6.70;70.50
76293;DHT22;67256;51.154;4.164;2023-02-15T08:46:24;6.70;70.40
76293;DHT22;67256;51.154;4.164;2023-02-15T08:48:51;6.70;70.80
76293;DHT22;67256;51.154;4.164;2023-02-15T08:51:25;6.80;71.00
76293;DHT22;67256;51.154;4.164;2023-02-15T08:53:57;6.80;70.70
76293;DHT22;67256;51.154;4.164;2023-02-15T08:56:25;6.90;70.50
76293;DHT22;67256;51.154;4.164;2023-02-15T08:58:53;7.00;70.30
76293;DHT22;67256;51.154;4.164;2023-02-15T09:01:26;7.00;70.00
76293;DHT22;67256;51.154;4.164;2023-02-15T09:03:57;7.10;70.10
76293;DHT22;67256;51.154;4.164;2023-02-15T09:06:23;7.10;69.80
76293;DHT22;67256;51.154;4.164;2023-02-15T09:08:50;7.10;69.90
76293;DHT22;67256;51.154;4.164;2023-02-15T09:11:17;7.20;69.60
76293;DHT22;67256;51.154;4.164;2023-02-15T09:13:55;7.30;69.20
76293;DHT22;67256;51.154;4.164;2023-02-15T09:16:22;7.30;69.50
76293;DHT22;67256;51.154;4.164;2023-02-15T09:18:50;7.30;69.80
76293;DHT22;67256;51.154;4.164;2023-02-15T09:21:22;7.30;69.70
76293;DHT22;67256;51.154;4.164;2023-02-15T09:23:49;7.30;69.90
76293;DHT22;67256;51.154;4.164;2023-02-15T09:26:18;7.40;69.40
76293;DHT22;67256;51.154;4.164;2023-02-15T09:28:44;7.50;68.90
76293;DHT22;67256;51.154;4.164;2023-02-15T09:31:16;7.60;69.00
76293;DHT22;67256;51.154;4.164;2023-02-15T09:33:43;7.60;69.00
76293;DHT22;67256;51.154;4.164;2023-02-15T09:38:48;7.70;68.60
76293;DHT22;67256;51.154;4.164;2023-02-15T09:46:46;7.70;69.10
76293;DHT22;67256;51.154;4.164;2023-02-15T09:57:11;7.70;69.30
76293;DHT22;67256;51.154;4.164;2023-02-15T09:59:47;7.70;69.50
76293;DHT22;67256;51.154;4.164;2023-02-15T10:04:50;7.80;69.30
76293;DHT22;67256;51.154;4.164;2023-02-15T10:07:59;7.70;69.40
76293;DHT22;67256;51.154;4.164;2023-02-15T10:19:52;7.80;69.20
76293;DHT22;67256;51.154;4.164;2023-02-15T10:27:43;7.90;69.60
76293;DHT22;67256;51.154;4.164;2023-02-15T10:30:12;7.90;69.50
76293;DHT22;67256;51.154;4.164;2023-02-15T10:33:02;8.00;70.10
76293;DHT22;67256;51.154;4.164;2023-02-15T10:35:43;8.10;69.40
76293;DHT22;67256;51.154;4.164;2023-02-15T10:52:25;8.10;70.20
76293;DHT22;67256;51.154;4.164;2023-02-15T11:00:37;8.30;70.10
76293;DHT22;67256;51.154;4.164;2023-02-15T11:08:27;8.40;70.20
76293;DHT22;67256;51.154;4.164;2023-02-15T11:11:22;8.50;69.80
76293;DHT22;67256;51.154;4.164;2023-02-15T11:13:52;8.70;69.70
76293;DHT22;67256;51.154;4.164;2023-02-15T11:16:24;8.60;69.50
76293;DHT22;67256;51.154;4.164;2023-02-15T11:21:48;8.70;69.30
76293;DHT22;67256;51.154;4.164;2023-02-15T11:24:17;8.70;69.90
76293;DHT22;67256;51.154;4.164;2023-02-15T11:26:51;8.70;69.60
76293;DHT22;67256;51.154;4.164;2023-02-15T11:29:27;8.70;69.60
76293;DHT22;67256;51.154;4.164;2023-02-15T11:31:58;8.70;69.50
76293;DHT22;67256;51.154;4.164;2023-02-15T11:37:01;8.60;69.70
76293;DHT22;67256;51.154;4.164;2023-02-15T11:39:30;8.70;69.30
76293;DHT22;67256;51.154;4.164;2023-02-15T11:42:00;8.70;69.50
76293;DHT22;67256;51.154;4.164;2023-02-15T11:44:42;8.80;69.20
76293;DHT22;67256;51.154;4.164;2023-02-15T11:47:11;8.80;69.40
76293;DHT22;67256;51.154;4.164;2023-02-15T11:49:37;8.90;68.80
76293;DHT22;67256;51.154;4.164;2023-02-15T11:52:10;8.90;68.80
76293;DHT22;67256;51.154;4.164;2023-02-15T11:54:43;9.00;68.40
76293;DHT22;67256;51.154;4.164;2023-02-15T11:57:37;9.10;68.50
76293;DHT22;67256;51.154;4.164;2023-02-15T12:00:25;9.10;68.80
76293;DHT22;67256;51.154;4.164;2023-02-15T12:02:54;9.20;68.50
76293;DHT22;67256;51.154;4.164;2023-02-15T12:05:24;9.20;68.20
76293;DHT22;67256;51.154;4.164;2023-02-15T12:13:25;9.30;68.20
76293;DHT22;67256;51.154;4.164;2023-02-15T12:15:54;9.30;68.20
76293;DHT22;67256;51.154;4.164;2023-02-15T12:18:34;9.40;68.50
76293;DHT22;67256;51.154;4.164;2023-02-15T12:21:44;9.50;68.00
76293;DHT22;67256;51.154;4.164;2023-02-15T12:23:54;9.60;67.90
76293;DHT22;67256;51.154;4.164;2023-02-15T12:26:29;9.60;67.50
76293;DHT22;67256;51.154;4.164;2023-02-15T12:28:58;9.60;67.60
76293;DHT22;67256;51.154;4.164;2023-02-15T12:31:36;9.70;66.70
76293;DHT22;67256;51.154;4.164;2023-02-15T12:34:28;9.80;66.70
76293;DHT22;67256;51.154;4.164;2023-02-15T12:36:58;9.80;66.60
76293;DHT22;67256;51.154;4.164;2023-02-15T12:42:00;9.80;67.00
76293;DHT22;67256;51.154;4.164;2023-02-15T12:44:35;9.80;66.60
76293;DHT22;67256;51.154;4.164;2023-02-15T12:47:25;9.90;66.70
76293;DHT22;67256;51.154;4.164;2023-02-15T12:52:34;10.00;66.40
76293;DHT22;67256;51.154;4.164;2023-02-15T12:55:20;10.10;66.70
76293;DHT22;67256;51.154;4.164;2023-02-15T12:57:46;10.10;66.40
76293;DHT22;67256;51.154;4.164;2023-02-15T13:02:52;10.20;66.00
76293;DHT22;67256;51.154;4.164;2023-02-15T13:07:51;10.30;66.00
76293;DHT22;67256;51.154;4.164;2023-02-15T13:10:25;10.30;66.30
76293;DHT22;67256;51.154;4.164;2023-02-15T13:12:52;10.30;66.10
76293;DHT22;67256;51.154;4.164;2023-02-15T13:15:29;10.30;66.10
76293;DHT22;67256;51.154;4.164;2023-02-15T13:17:58;10.30;66.30
76293;DHT22;67256;51.154;4.164;2023-02-15T13:20:25;10.30;66.50
76293;DHT22;67256;51.154;4.164;2023-02-15T13:23:04;10.30;66.20
76293;DHT22;67256;51.154;4.164;2023-02-15T13:25:39;10.40;66.00
76293;DHT22;67256;51.154;4.164;2023-02-15T13:28:13;10.40;66.00
76293;DHT22;67256;51.154;4.164;2023-02-15T13:30:44;10.50;66.00
76293;DHT22;67256;51.154;4.164;2023-02-15T13:41:06;10.50;66.10
76293;DHT22;67256;51.154;4.164;2023-02-15T14:08:29;10.30;67.70
76293;DHT22;67256;51.154;4.164;2023-02-15T14:13:49;10.40;68.10
76293;DHT22;67256;51.154;4.164;2023-02-15T14:19:21;10.40;68.10
76293;DHT22;67256;51.154;4.164;2023-02-15T14:24:46;10.50;67.50
76293;DHT22;67256;51.154;4.164;2023-02-15T14:27:26;10.60;67.50
76293;DHT22;67256;51.154;4.164;2023-02-15T14:29:56;10.60;67.50
76293;DHT22;67256;51.154;4.164;2023-02-15T14:35:00;10.60;67.50
76293;DHT22;67256;51.154;4.164;2023-02-15T14:46:34;10.70;67.30
76293;DHT22;67256;51.154;4.164;2023-02-15T14:54:09;10.80;67.40
76293;DHT22;67256;51.154;4.164;2023-02-15T14:56:35;10.90;67.20
76293;DHT22;67256;51.154;4.164;2023-02-15T15:01:42;10.90;66.90
76293;DHT22;67256;51.154;4.164;2023-02-15T15:04:37;10.90;67.00
76293;DHT22;67256;51.154;4.164;2023-02-15T15:07:20;10.90;67.50
76293;DHT22;67256;51.154;4.164;2023-02-15T15:09:58;10.90;66.80
76293;DHT22;67256;51.154;4.164;2023-02-15T15:14:51;10.90;67.00
76293;DHT22;67256;51.154;4.164;2023-02-15T15:20:04;10.90;66.80
76293;DHT22;67256;51.154;4.164;2023-02-15T15:22:33;11.00;66.50
76293;DHT22;67256;51.154;4.164;2023-02-15T15:25:03;11.00;66.30
76293;DHT22;67256;51.154;4.164;2023-02-15T15:41:08;11.00;66.30
76293;DHT22;67256;51.154;4.164;2023-02-15T15:49:40;11.00;66.40
76293;DHT22;67256;51.154;4.164;2023-02-15T15:52:15;11.00;66.50
76293;DHT22;67256;51.154;4.164;2023-02-15T15:54:42;11.00;66.50
76293;DHT22;67256;51.154;4.164;2023-02-15T15:57:27;11.00;66.70
76293;DHT22;67256;51.154;4.164;2023-02-15T15:59:55;11.00;66.70
76293;DHT22;67256;51.154;4.164;2023-02-15T16:02:23;11.00;66.80
76293;DHT22;67256;51.154;4.164;2023-02-15T16:04:49;11.00;66.70
76293;DHT22;67256;51.154;4.164;2023-02-15T16:09:58;11.00;66.70
76293;DHT22;67256;51.154;4.164;2023-02-15T16:12:30;10.90;66.80
76293;DHT22;67256;51.154;4.164;2023-02-15T16:14:57;10.90;66.70
76293;DHT22;67256;51.154;4.164;2023-02-15T16:17:28;10.90;66.80
76293;DHT22;67256;51.154;4.164;2023-02-15T16:20:11;11.00;66.80
76293;DHT22;67256;51.154;4.164;2023-02-15T16:22:39;11.00;66.80
76293;DHT22;67256;51.154;4.164;2023-02-15T16:27:44;11.00;66.80
76293;DHT22;67256;51.154;4.164;2023-02-15T16:30:37;11.00;66.80
76293;DHT22;67256;51.154;4.164;2023-02-15T16:33:10;10.90;66.80
76293;DHT22;67256;51.154;4.164;2023-02-15T16:35:57;10.90;66.70
76293;DHT22;67256;51.154;4.164;2023-02-15T16:41:29;10.80;67.30
76293;DHT22;67256;51.154;4.164;2023-02-15T16:43:58;10.80;66.80
76293;DHT22;67256;51.154;4.164;2023-02-15T16:46:33;10.80;66.70
76293;DHT22;67256;51.154;4.164;2023-02-15T16:49:04;10.80;66.60
76293;DHT22;67256;51.154;4.164;2023-02-15T16:51:31;10.80;66.70
76293;DHT22;67256;51.154;4.164;2023-02-15T16:54:03;10.70;66.70
76293;DHT22;67256;51.154;4.164;2023-02-15T16:56:31;10.70;66.70
76293;DHT22;67256;51.154;4.164;2023-02-15T16:58:58;10.70;66.80
76293;DHT22;67256;51.154;4.164;2023-02-15T17:01:27;10.60;66.80
76293;DHT22;67256;51.154;4.164;2023-02-15T17:07:15;10.60;66.80
76293;DHT22;67256;51.154;4.164;2023-02-15T17:09:57;10.60;66.70
76293;DHT22;67256;51.154;4.164;2023-02-15T17:12:45;10.60;66.70
76293;DHT22;67256;51.154;4.164;2023-02-15T17:18:03;10.60;66.50
76293;DHT22;67256;51.154;4.164;2023-02-15T17:20:30;10.60;66.50
76293;DHT22;67256;51.154;4.164;2023-02-15T17:22:56;10.60;66.60
76293;DHT22;67256;51.154;4.164;2023-02-15T17:25:36;10.50;66.50
76293;DHT22;67256;51.154;4.164;2023-02-15T17:28:03;10.50;66.40
76293;DHT22;67256;51.154;4.164;2023-02-15T17:30:32;10.60;66.50
76293;DHT22;67256;51.154;4.164;2023-02-15T17:33:00;10.60;66.40
76293;DHT22;67256;51.154;4.164;2023-02-15T17:35:33;10.60;66.20
76293;DHT22;67256;51.154;4.164;2023-02-15T17:38:19;10.50;66.40
76293;DHT22;67256;51.154;4.164;2023-02-15T17:40:46;10.50;66.40
76293;DHT22;67256;51.154;4.164;2023-02-15T17:43:12;10.50;66.60
76293;DHT22;67256;51.154;4.164;2023-02-15T17:45:43;10.50;66.70
76293;DHT22;67256;51.154;4.164;2023-02-15T17:48:29;10.50;66.50
76293;DHT22;67256;51.154;4.164;2023-02-15T17:51:00;10.50;67.10
76293;DHT22;67256;51.154;4.164;2023-02-15T17:53:26;10.50;66.60
76293;DHT22;67256;51.154;4.164;2023-02-15T17:55:52;10.50;66.70
76293;DHT22;67256;51.154;4.164;2023-02-15T17:58:19;10.50;66.70
76293;DHT22;67256;51.154;4.164;2023-02-15T18:00:56;10.50;66.60
76293;DHT22;67256;51.154;4.164;2023-02-15T18:03:51;10.50;66.50
76293;DHT22;67256;51.154;4.164;2023-02-15T18:06:38;10.50;66.50
76293;DHT22;67256;51.154;4.164;2023-02-15T18:09:23;10.50;66.50
76293;DHT22;67256;51.154;4.164;2023-02-15T18:12:21;10.60;66.60
76293;DHT22;67256;51.154;4.164;2023-02-15T18:14:48;10.60;66.70
76293;DHT22;67256;51.154;4.164;2023-02-15T18:17:15;10.50;66.70
76293;DHT22;67256;51.154;4.164;2023-02-15T18:19:43;10.50;66.80
76293;DHT22;67256;51.154;4.164;2023-02-15T18:22:15;10.50;67.00
76293;DHT22;67256;51.154;4.164;2023-02-15T18:24:42;10.50;67.00
76293;DHT22;67256;51.154;4.164;2023-02-15T18:27:11;10.50;67.00
76293;DHT22;67256;51.154;4.164;2023-02-15T18:29:37;10.50;67.00
76293;DHT22;67256;51.154;4.164;2023-02-15T18:32:08;10.50;67.20
76293;DHT22;67256;51.154;4.164;2023-02-15T18:34:37;10.50;67.20
76293;DHT22;67256;51.154;4.164;2023-02-15T18:37:05;10.40;67.60
76293;DHT22;67256;51.154;4.164;2023-02-15T18:39:46;10.40;67.80
76293;DHT22;67256;51.154;4.164;2023-02-15T18:42:23;10.30;68.30
76293;DHT22;67256;51.154;4.164;2023-02-15T18:44:55;10.40;68.10
76293;DHT22;67256;51.154;4.164;2023-02-15T18:47:22;10.40;68.40
76293;DHT22;67256;51.154;4.164;2023-02-15T18:49:48;10.30;68.70
76293;DHT22;67256;51.154;4.164;2023-02-15T18:52:16;10.30;68.70
76293;DHT22;67256;51.154;4.164;2023-02-15T18:54:43;10.40;68.70
76293;DHT22;67256;51.154;4.164;2023-02-15T18:57:12;10.40;69.50
76293;DHT22;67256;51.154;4.164;2023-02-15T18:59:39;10.40;68.90
76293;DHT22;67256;51.154;4.164;2023-02-15T19:02:16;10.40;69.10
76293;DHT22;67256;51.154;4.164;2023-02-15T19:04:43;10.30;69.10
76293;DHT22;67256;51.154;4.164;2023-02-15T19:09:41;10.40;69.00
76293;DHT22;67256;51.154;4.164;2023-02-15T19:12:11;10.30;68.90
76293;DHT22;67256;51.154;4.164;2023-02-15T19:14:38;10.40;68.70
76293;DHT22;67256;51.154;4.164;2023-02-15T19:17:08;10.40;68.60
76293;DHT22;67256;51.154;4.164;2023-02-15T19:19:38;10.40;68.20
76293;DHT22;67256;51.154;4.164;2023-02-15T19:22:04;10.30;68.30
76293;DHT22;67256;51.154;4.164;2023-02-15T19:24:36;10.30;68.30
76293;DHT22;67256;51.154;4.164;2023-02-15T19:27:05;10.30;68.10
76293;DHT22;67256;51.154;4.164;2023-02-15T19:29:31;10.30;68.00
76293;DHT22;67256;51.154;4.164;2023-02-15T19:31:57;10.30;67.90
76293;DHT22;67256;51.154;4.164;2023-02-15T19:34:23;10.30;68.00
76293;DHT22;67256;51.154;4.164;2023-02-15T19:36:52;10.30;68.00
76293;DHT22;67256;51.154;4.164;2023-02-15T19:39:36;10.30;67.90